^^

Meteo Aereoporti Centro-Italia

 

 
LIRZ - Perugia S.Egidio (208 m.)
Dati ricevuti: 11/12/2017 22:50
Dati non aggiornati
Molto nuvoloso
Molto nuvoloso
 Vento da S
Vento: S 37 km/h, Raffica: 61 km/h
TEMPERATURA: 14°C
P.to di Rugiada: 9°C
Umidità: 72%
Pressione: 1004 hPa
Nuvole: Molto nuvoloso
Visibilità: 10 km
Dettagli Nuvole: Molto nuvoloso 914 m
2017/12/11 21:50 LIRZ 112150Z 18020G33KT 9999 BKN030 14/09 Q1004
 
LIPY - Ancona Falconara (12 m.)
Dati ricevuti: 12/12/2017 04:50
Poco nuvoloso
Poco nuvoloso
 Vento da SSE
Vento: SSE 11 km/h
TEMPERATURA: 18°C
P.to di Rugiada: 7°C
Umidità: 49%
Pressione: 1005 hPa
Nuvole: Poco nuvoloso
Visibilità: 10 km
Dettagli Nuvole: Poco nuvoloso 1829 m
2017/12/12 03:50 LIPY 120350Z 16006KT 130V190 9999 SCT060 18/07 Q1005
 
LIPR - Rimini Miramare (12 m.)
Dati ricevuti: 12/12/2017 05:15
Molto nuvoloso
Molto nuvoloso
 Vento da SSE
Vento: SSE 22 km/h, Raffica: 44 km/h
TEMPERATURA: 17°C
P.to di Rugiada: 11°C
Umidità: 68%
Pressione: 1003 hPa
Nuvole: Molto nuvoloso
Visibilità: 10 km
Dettagli Nuvole: Qualche nuvola 1219 m
Molto nuvoloso 1829 m
2017/12/12 04:15 LIPR 120415Z 16012G24KT 9999 FEW040 BKN060 17/11 Q1003
 
LIRF - Roma Fiumicino (2 m.)
Dati ricevuti: 12/12/2017 05:20
Molto nuvoloso
Molto nuvoloso
 Vento da SSE
Vento: SSE 28 km/h
TEMPERATURA: 16°C
P.to di Rugiada: 12°C
Umidità: 77%
Pressione: 1010 hPa
Nuvole: Molto nuvoloso
Visibilità: 8 km
Dettagli Nuvole: Molto nuvoloso 671 m
2017/12/12 04:20 LIRF 120420Z 15015KT 8000 BKN022 16/12 Q1010 NOSIG
 
LIRA - Roma Ciampino (129 m.)
Dati ricevuti: 12/12/2017 05:20
Poco nuvoloso
Poco nuvoloso
 Vento da SSE
Vento: SSE 33 km/h, Raffica: 54 km/h
TEMPERATURA: 15°C
P.to di Rugiada: 11°C
Umidità: 77%
Pressione: 1009 hPa
Nuvole: Poco nuvoloso
Visibilità: 10 km
Dettagli Nuvole: Poco nuvoloso 762 m
2017/12/12 04:20 LIRA 120420Z 16018G29KT 9999 SCT025 15/11 Q1009
 
LIRU - Roma Urbe (17 m.)
Dati ricevuti: 11/12/2017 16:50
Dati non aggiornati
Foschia, Molto Nuvoloso
Foschia, Molto Nuvoloso
 Vento da S
Vento: S 24 km/h
TEMPERATURA: 16°C
P.to di Rugiada: 11°C
Umidità: 72%
Pressione: 1007 hPa
Condizioni generali: Foschia
Nuvole: Molto nuvoloso
Visibilità: 5 km
Dettagli Nuvole: Molto nuvoloso 610 m
2017/12/11 15:50 LIRU 111550Z 18013KT 5000 BR BKN020 16/11 Q1007
 
LIVF - Frontone (570 m.)
Dati ricevuti: 10/12/2017 04:55
Dati non aggiornati
Sereno
Sereno
 Vento da SSE
Vento: SSE 6 km/h
TEMPERATURA: 0°C
P.to di Rugiada: -12°C
Umidità: 40%
Pressione: 1013 hPa
Condizioni generali: Sereno
Visibilità: oltre 10 km
2017/12/10 03:55 LIVF 100355Z 15003KT CAVOK M00/M12 Q1013
 
LIRQ - Firenze Peretola (40 m.)
Dati ricevuti: 12/12/2017 05:20
Pioggia intensa, Molto Nuvoloso
Pioggia intensa, Molto Nuvoloso
 Vento da SW
Vento: SW 15 km/h
TEMPERATURA: 11°C
P.to di Rugiada: 10°C
Umidità: 94%
Pressione: 1006 hPa
Condizioni generali: Pioggia intensa
Nuvole: Molto nuvoloso
Visibilità: 10 km
Dettagli Nuvole: Poco nuvoloso 457 m
Molto nuvoloso 1402 m
2017/12/12 04:20 LIRQ 120420Z 23008KT 190V260 9999 +RA SCT015 BKN046 11/10 Q1006 RERA
 
LIBP - Pescara (10 m.)
Dati ricevuti: 12/12/2017 04:50
Sereno
Sereno
 Vento da S
Vento: S 13 km/h
TEMPERATURA: 19°C
P.to di Rugiada: 5°C
Umidità: 40%
Pressione: 1007 hPa
Nuvole: Sereno
Visibilità: 10 km
2017/12/12 03:50 LIBP 120350Z AUTO 17007KT 140V200 9999 NCD 19/05 Q1007
 
LIRV - Viterbo (300 m.)
Dati ricevuti: 11/12/2017 18:55
Dati non aggiornati
Molto nuvoloso
Molto nuvoloso
 Vento da S
Vento: S 39 km/h
TEMPERATURA: 12°C
P.to di Rugiada: 8°C
Umidità: 77%
Pressione: 1004 hPa
Nuvole: Molto nuvoloso
Visibilità: 10 km
Dettagli Nuvole: Molto nuvoloso 488 m
2017/12/11 17:55 LIRV 111755Z 17021KT 9999 BKN016 12/08 Q1004
 
LIQN - Rieti (389 m.)
Dati ricevuti: 11/12/2017 16:50
Dati non aggiornati
Molto nuvoloso
Molto nuvoloso
 Vento da SSE
Vento: SSE 19 km/h
TEMPERATURA: 13°C
P.to di Rugiada: 8°C
Umidità: 72%
Pressione: 1005 hPa
Nuvole: Molto nuvoloso
Visibilità: 10 km
Dettagli Nuvole: Molto nuvoloso 914 m
2017/12/11 15:50 LIQN 111550Z 15010KT 9999 BKN030 13/08 Q1005
 
LIRG - Guidonia -RM- (88 m.)
Dati ricevuti: 11/12/2017 18:55
Dati non aggiornati
Poco nuvoloso
Poco nuvoloso
 Vento da SSE
Vento: SSE 33 km/h, Raffica: 52 km/h
TEMPERATURA: 15°C
P.to di Rugiada: 11°C
Umidità: 77%
Pressione: 1009 hPa
Nuvole: Poco nuvoloso
Visibilità: 10 km
Dettagli Nuvole: Qualche nuvola 610 m
Poco nuvoloso 914 m
2017/12/11 17:55 LIRG 111755Z 15018G28KT 9999 FEW020 SCT030 15/11 Q1009
 
LIRK - Terminillo -RI-(1874 m.)
Dati ricevuti: 29/11/2017 11:55
Dati non aggiornati

 Vento da direzione variabile
Vento: direzione variabile 0 km/h
2017/11/29 10:55 LIRK 291055Z AUTO /////KT //// ///// Q////
 
LIPK - Forlì (27 m.)
Dati ricevuti: 11/12/2017 17:50
Dati non aggiornati
Molto nuvoloso
Molto nuvoloso
 Vento da SE
Vento: SE 11 km/h
TEMPERATURA: 17°C
P.to di Rugiada: 7°C
Umidità: 52%
Pressione: 997 hPa
Nuvole: Molto nuvoloso
Visibilità: 10 km
Dettagli Nuvole: Molto nuvoloso 610 m
2017/12/11 16:50 LIPK 111650Z 13006KT 9999 BKN020 17/07 Q0997
 
LIRS - Grosseto (5 m.)
Dati ricevuti: 12/12/2017 04:55
Poco nuvoloso
Poco nuvoloso
 Vento da S
Vento: S 26 km/h, Raffica: 46 km/h
TEMPERATURA: 17°C
P.to di Rugiada: 14°C
Umidità: 83%
Pressione: 1005 hPa
Nuvole: Poco nuvoloso
Visibilità: 8 km
Dettagli Nuvole: Poco nuvoloso 457 m
Poco nuvoloso 762 m
2017/12/12 03:55 LIRS 120355Z 18014G25KT 8000 SCT015 SCT025 17/14 Q1005
 
LIRP - Pisa S.Giusto (2 m.)
Dati ricevuti: 12/12/2017 05:15
Pioggia debole, Molto Nuvoloso
Pioggia debole, Molto Nuvoloso
 Vento da WSW
Vento: WSW 17 km/h
TEMPERATURA: 12°C
P.to di Rugiada: 10°C
Umidità: 88%
Pressione: 1005 hPa
Condizioni generali: Pioggia debole
Nuvole: Molto nuvoloso
Visibilità: 10 km
Dettagli Nuvole: Poco nuvoloso 762 m
Molto nuvoloso 1219 m
2017/12/12 04:15 LIRP 120415Z 25009KT 9999 -RA SCT025 BKN040 12/10 Q1005 TEMPO 5000 RA